Time;durP1;ratioP1;P1;durP2;ratioP2;P2;SDS_P1;SDS_P2;PMS_P1;PMS_P2;Temp;Humidity;BMP_temperature;BMP_pressure;BME280_temperature;BME280_humidity;BME280_pressure;Samples;Min_cycle;Max_cycle;Signal;HPM_P1;HPM_P2
2021/03/03 00:01:02;;;;;;;39.50;25.67;;;;;;;;;;5090830;28;20027;-45
2021/03/03 00:03:28;;;;;;;28.92;20.42;;;;;;;;;;5090460;28;20059;-46
2021/03/03 00:05:54;;;;;;;43.97;20.52;;;;;;;;;;5091152;28;20111;-50
2021/03/03 00:08:19;;;;;;;30.45;21.90;;;;;;;;;;5090830;28;20135;-51
2021/03/03 00:10:44;;;;;;;30.55;20.70;;;;;;;;;;5091297;28;20054;-47
2021/03/03 00:13:09;;;;;;;34.00;19.65;;;;;;;;;;5090558;28;20376;-45
2021/03/03 00:15:36;;;;;;;32.88;23.52;;;;;;;;;;5090730;28;20024;-52
2021/03/03 00:18:02;;;;;;;27.13;19.95;;;;;;;;;;5090323;28;20031;-51
2021/03/03 00:20:27;;;;;;;28.92;22.15;;;;;;;;;;5091258;28;20024;-44
2021/03/03 00:22:52;;;;;;;34.78;22.95;;;;;;;;;;5090757;28;20020;-44
2021/03/03 00:25:17;;;;;;;31.38;22.52;;;;;;;;;;5091162;28;20027;-46
2021/03/03 00:27:43;;;;;;;34.92;21.33;;;;;;;;;;5091401;28;20043;-45
2021/03/03 00:30:08;;;;;;;25.73;19.75;;;;;;;;;;5090464;28;20636;-48
2021/03/03 00:32:34;;;;;;;24.60;19.98;;;;;;;;;;5088701;28;20540;-48
2021/03/03 00:34:59;;;;;;;40.13;17.90;;;;;;;;;;5089590;28;20077;-46
2021/03/03 00:37:24;;;;;;;29.65;17.23;;;;;;;;;;5089741;28;20028;-49
2021/03/03 00:39:50;;;;;;;30.42;17.58;;;;;;;;;;5089979;28;20028;-48
2021/03/03 00:42:15;;;;;;;34.97;18.58;;;;;;;;;;5090385;28;20035;-46
2021/03/03 00:44:40;;;;;;;27.55;16.40;;;;;;;;;;5090715;28;20032;-46
2021/03/03 00:47:06;;;;;;;31.83;20.20;;;;;;;;;;5090288;28;20028;-45
2021/03/03 00:49:31;;;;;;;46.15;23.83;;;;;;;;;;5090591;28;20038;-47
2021/03/03 00:51:56;;;;;;;29.65;18.95;;;;;;;;;;5089637;28;20024;-49
2021/03/03 00:54:21;;;;;;;30.75;17.75;;;;;;;;;;5089730;28;20031;-49
2021/03/03 00:56:47;;;;;;;33.20;16.55;;;;;;;;;;5090335;28;20377;-46
2021/03/03 00:59:12;;;;;;;34.95;25.55;;;;;;;;;;5090607;28;20024;-45
2021/03/03 01:01:37;;;;;;;17.50;15.13;;;;;;;;;;5089931;28;20032;-45
2021/03/03 01:04:03;;;;;;;19.27;13.68;;;;;;;;;;5090443;28;20048;-49
2021/03/03 01:06:28;;;;;;;42.08;21.08;;;;;;;;;;5090317;28;20362;-47
2021/03/03 01:08:53;;;;;;;20.23;15.85;;;;;;;;;;5090840;28;20028;-49
2021/03/03 01:11:18;;;;;;;27.60;19.00;;;;;;;;;;5089918;28;20016;-49
2021/03/03 01:13:44;;;;;;;46.42;29.63;;;;;;;;;;5090238;28;20676;-46
2021/03/03 01:16:09;;;;;;;34.97;22.20;;;;;;;;;;5090186;28;20021;-47
2021/03/03 01:18:34;;;;;;;25.85;21.42;;;;;;;;;;5090040;28;20047;-51
2021/03/03 01:21:00;;;;;;;39.25;23.05;;;;;;;;;;5090394;28;20051;-50
2021/03/03 01:23:25;;;;;;;17.77;15.88;;;;;;;;;;5089706;28;20044;-48
2021/03/03 01:25:50;;;;;;;24.67;16.33;;;;;;;;;;5090239;28;20032;-51
2021/03/03 01:28:16;;;;;;;31.17;16.88;;;;;;;;;;5089479;28;20153;-49
2021/03/03 01:30:41;;;;;;;20.02;17.58;;;;;;;;;;5090384;28;20024;-44
2021/03/03 01:33:06;;;;;;;33.47;17.42;;;;;;;;;;5089951;28;20050;-45
2021/03/03 01:35:32;;;;;;;27.73;22.15;;;;;;;;;;5090130;28;20472;-50
2021/03/03 01:37:57;;;;;;;41.17;24.15;;;;;;;;;;5089427;28;20069;-47
2021/03/03 01:40:23;;;;;;;41.00;24.17;;;;;;;;;;5090138;28;20098;-45
2021/03/03 01:42:48;;;;;;;32.05;24.60;;;;;;;;;;5088192;28;20028;-53
2021/03/03 01:45:14;;;;;;;32.15;22.55;;;;;;;;;;5090069;28;20039;-48
2021/03/03 01:47:39;;;;;;;42.03;23.85;;;;;;;;;;5090387;28;20032;-49
2021/03/03 01:50:08;;;;;;;30.70;23.25;;;;;;;;;;5089347;28;20042;-46
2021/03/03 01:52:36;;;;;;;25.83;22.65;;;;;;;;;;5090095;28;20021;-48
2021/03/03 01:55:02;;;;;;;32.05;23.80;;;;;;;;;;5089440;28;20024;-49
2021/03/03 01:57:29;;;;;;;24.80;22.02;;;;;;;;;;5091056;28;20024;-45
2021/03/03 01:59:54;;;;;;;28.95;20.20;;;;;;;;;;5093075;28;20071;-45
2021/03/03 02:02:23;;;;;;;19.58;17.45;;;;;;;;;;5093918;28;20055;-46
2021/03/03 02:04:49;;;;;;;33.47;15.63;;;;;;;;;;5094225;28;20460;-49
2021/03/03 02:07:17;;;;;;;30.05;16.50;;;;;;;;;;5093990;28;20073;-48
2021/03/03 02:09:46;;;;;;;25.23;15.50;;;;;;;;;;5094653;28;20028;-46
2021/03/03 02:12:16;;;;;;;17.75;14.82;;;;;;;;;;5090490;28;20121;-51
2021/03/03 02:14:43;;;;;;;15.27;13.68;;;;;;;;;;5084105;28;20328;-45
2021/03/03 02:17:09;;;;;;;22.38;16.48;;;;;;;;;;5092703;28;20093;-46
2021/03/03 02:19:36;;;;;;;33.30;16.95;;;;;;;;;;5090917;28;20765;-51
2021/03/03 02:22:22;;;;;;;25.83;17.70;;;;;;;;;;5093696;28;20028;-51
2021/03/03 02:24:51;;;;;;;20.10;15.90;;;;;;;;;;5093176;28;20050;-53
2021/03/03 02:27:20;;;;;;;17.30;15.53;;;;;;;;;;5093070;28;20393;-52
2021/03/03 02:29:46;;;;;;;23.50;14.85;;;;;;;;;;5093690;28;20024;-49
2021/03/03 02:32:13;;;;;;;21.52;14.95;;;;;;;;;;5093530;28;20039;-48
2021/03/03 02:34:39;;;;;;;18.25;14.77;;;;;;;;;;5093412;28;20024;-50
2021/03/03 02:37:05;;;;;;;17.80;14.60;;;;;;;;;;5092698;28;20476;-47
2021/03/03 02:39:30;;;;;;;32.17;14.25;;;;;;;;;;5093322;28;20102;-53
2021/03/03 02:41:56;;;;;;;24.83;14.93;;;;;;;;;;5092188;28;20043;-47
2021/03/03 02:44:22;;;;;;;15.68;14.07;;;;;;;;;;5091901;28;20047;-50
2021/03/03 02:46:49;;;;;;;16.95;13.20;;;;;;;;;;5092431;28;20467;-47
2021/03/03 02:49:16;;;;;;;23.85;13.70;;;;;;;;;;5093252;28;20035;-51
2021/03/03 02:51:41;;;;;;;29.70;13.18;;;;;;;;;;5092528;28;20039;-49
2021/03/03 02:54:13;;;;;;;24.60;16.52;;;;;;;;;;5092834;28;20069;-45
2021/03/03 02:56:39;;;;;;;22.63;16.30;;;;;;;;;;5093027;28;20034;-46
2021/03/03 02:59:27;;;;;;;21.10;14.00;;;;;;;;;;5092364;28;20031;-53
2021/03/03 03:01:53;;;;;;;24.73;15.75;;;;;;;;;;5091351;28;20488;-48
2021/03/03 03:04:19;;;;;;;25.33;16.98;;;;;;;;;;5092415;28;20465;-48
2021/03/03 03:06:47;;;;;;;22.42;13.63;;;;;;;;;;5092748;28;20035;-50
2021/03/03 03:09:13;;;;;;;25.67;13.88;;;;;;;;;;5090586;28;20477;-49
2021/03/03 03:11:44;;;;;;;20.88;16.30;;;;;;;;;;5092261;28;20020;-49
2021/03/03 03:14:13;;;;;;;29.15;14.10;;;;;;;;;;5092038;28;20066;-44
2021/03/03 03:16:39;;;;;;;22.92;15.43;;;;;;;;;;5092656;28;20490;-44
2021/03/03 03:19:07;;;;;;;25.40;16.48;;;;;;;;;;5091782;28;20112;-46
2021/03/03 03:21:35;;;;;;;21.13;15.18;;;;;;;;;;5092264;28;20020;-46
2021/03/03 03:24:02;;;;;;;22.10;14.60;;;;;;;;;;5091363;28;20101;-51
2021/03/03 03:26:27;;;;;;;19.85;15.55;;;;;;;;;;5092368;28;20024;-47
2021/03/03 03:28:53;;;;;;;36.75;16.52;;;;;;;;;;5092102;28;20107;-48
2021/03/03 03:31:18;;;;;;;40.83;15.70;;;;;;;;;;5091497;28;20027;-49
2021/03/03 03:33:44;;;;;;;26.88;15.85;;;;;;;;;;5092216;28;20024;-46
2021/03/03 03:36:09;;;;;;;26.92;15.43;;;;;;;;;;5091504;28;20027;-44
2021/03/03 03:38:35;;;;;;;19.73;16.85;;;;;;;;;;5092081;28;20028;-53
2021/03/03 03:41:01;;;;;;;29.60;16.95;;;;;;;;;;5090379;28;20035;-46
2021/03/03 03:43:27;;;;;;;18.60;13.93;;;;;;;;;;5092027;28;20539;-50
2021/03/03 03:45:52;;;;;;;24.67;17.20;;;;;;;;;;5091374;28;20095;-53
2021/03/03 03:48:18;;;;;;;17.20;14.10;;;;;;;;;;5090488;28;20055;-46
2021/03/03 03:50:44;;;;;;;22.35;15.70;;;;;;;;;;5091640;28;20020;-45
2021/03/03 03:53:09;;;;;;;31.63;16.73;;;;;;;;;;5091712;28;20384;-47
2021/03/03 03:55:38;;;;;;;21.52;16.92;;;;;;;;;;5089883;28;20071;-50
2021/03/03 03:58:04;;;;;;;24.13;15.95;;;;;;;;;;5090046;28;20028;-45
2021/03/03 04:00:30;;;;;;;35.92;15.10;;;;;;;;;;5091534;28;20039;-49
2021/03/03 04:02:56;;;;;;;22.05;14.45;;;;;;;;;;5090686;28;20036;-50
2021/03/03 04:05:21;;;;;;;29.92;15.15;;;;;;;;;;5091063;28;20032;-45
2021/03/03 04:07:47;;;;;;;20.75;14.93;;;;;;;;;;5091156;28;20028;-50
2021/03/03 04:10:15;;;;;;;18.50;15.45;;;;;;;;;;5091595;28;20028;-46
2021/03/03 04:12:40;;;;;;;32.10;16.63;;;;;;;;;;5090805;28;20028;-49
2021/03/03 04:15:06;;;;;;;23.48;16.90;;;;;;;;;;5090828;28;20031;-51
2021/03/03 04:17:32;;;;;;;34.60;16.33;;;;;;;;;;5090975;28;20028;-52
2021/03/03 04:19:57;;;;;;;14.85;13.35;;;;;;;;;;5090132;28;20055;-54
2021/03/03 04:22:22;;;;;;;17.92;15.32;;;;;;;;;;5090727;28;20028;-47
2021/03/03 04:24:48;;;;;;;30.73;14.75;;;;;;;;;;5091147;28;20540;-48
2021/03/03 04:27:13;;;;;;;22.67;14.88;;;;;;;;;;5091500;28;20024;-49
2021/03/03 04:29:40;;;;;;;14.82;13.43;;;;;;;;;;5090470;28;20032;-46
2021/03/03 04:32:05;;;;;;;32.88;13.85;;;;;;;;;;5091244;28;20035;-46
2021/03/03 04:34:30;;;;;;;22.98;17.02;;;;;;;;;;5091188;28;20032;-48
2021/03/03 04:36:55;;;;;;;23.15;16.42;;;;;;;;;;5090340;28;20464;-52
2021/03/03 04:39:21;;;;;;;26.23;15.38;;;;;;;;;;5090442;28;20036;-50
2021/03/03 04:41:46;;;;;;;20.80;16.23;;;;;;;;;;5089491;28;20028;-49
2021/03/03 04:44:11;;;;;;;22.65;14.30;;;;;;;;;;5090285;28;20104;-50
2021/03/03 04:46:37;;;;;;;32.67;14.77;;;;;;;;;;5091047;28;20038;-47
2021/03/03 04:49:02;;;;;;;23.08;16.40;;;;;;;;;;5090674;28;20030;-47
2021/03/03 04:51:27;;;;;;;18.05;14.85;;;;;;;;;;5091104;28;20016;-47
2021/03/03 04:53:53;;;;;;;19.65;13.82;;;;;;;;;;5090527;28;20449;-50
2021/03/03 04:56:18;;;;;;;18.85;13.02;;;;;;;;;;5090944;28;20095;-45
2021/03/03 04:58:43;;;;;;;16.70;14.75;;;;;;;;;;5090478;28;20040;-45
2021/03/03 05:01:08;;;;;;;21.55;14.40;;;;;;;;;;5089431;28;20388;-50
2021/03/03 05:03:34;;;;;;;32.78;16.65;;;;;;;;;;5090541;28;20036;-47
2021/03/03 05:05:59;;;;;;;20.02;12.73;;;;;;;;;;5089627;28;20066;-49
2021/03/03 05:08:24;;;;;;;16.67;14.95;;;;;;;;;;5090720;28;20024;-50
2021/03/03 05:10:50;;;;;;;17.25;14.75;;;;;;;;;;5089596;28;20179;-45
2021/03/03 05:13:15;;;;;;;31.10;14.68;;;;;;;;;;5090123;28;20024;-51
2021/03/03 05:15:41;;;;;;;25.00;16.20;;;;;;;;;;5090268;28;20038;-47
2021/03/03 05:18:06;;;;;;;17.50;14.80;;;;;;;;;;5089598;28;20078;-45
2021/03/03 05:20:32;;;;;;;23.90;16.33;;;;;;;;;;5089854;28;20077;-57
2021/03/03 05:22:57;;;;;;;30.33;18.60;;;;;;;;;;5090003;28;20119;-52
2021/03/03 05:25:22;;;;;;;15.88;13.98;;;;;;;;;;5090707;28;20024;-47
2021/03/03 05:27:48;;;;;;;32.40;15.75;;;;;;;;;;5090064;28;20028;-49
2021/03/03 05:30:13;;;;;;;21.38;17.25;;;;;;;;;;5090782;28;20108;-44
2021/03/03 05:32:38;;;;;;;22.27;16.40;;;;;;;;;;5092331;28;20038;-46
2021/03/03 05:35:04;;;;;;;21.10;17.15;;;;;;;;;;5093998;28;20165;-47
2021/03/03 05:37:29;;;;;;;22.42;18.42;;;;;;;;;;5094520;28;20047;-47
2021/03/03 05:39:54;;;;;;;19.63;17.35;;;;;;;;;;5093821;28;20667;-46
2021/03/03 05:42:20;;;;;;;27.08;17.92;;;;;;;;;;5093779;28;20036;-49
2021/03/03 05:44:46;;;;;;;27.77;18.02;;;;;;;;;;5093608;28;20047;-50
2021/03/03 05:47:13;;;;;;;33.42;17.75;;;;;;;;;;5093935;28;20036;-44
2021/03/03 05:49:42;;;;;;;25.05;17.70;;;;;;;;;;5093199;28;20094;-44
2021/03/03 05:52:08;;;;;;;25.00;18.77;;;;;;;;;;5093482;28;20012;-47
2021/03/03 05:54:35;;;;;;;22.02;18.52;;;;;;;;;;5093790;28;20031;-49
2021/03/03 05:57:00;;;;;;;21.88;17.05;;;;;;;;;;5093078;28;20019;-43
2021/03/03 05:59:26;;;;;;;22.52;15.38;;;;;;;;;;5093849;28;20487;-49
2021/03/03 06:01:52;;;;;;;30.98;18.02;;;;;;;;;;5093982;28;20051;-45
2021/03/03 06:04:17;;;;;;;19.85;17.67;;;;;;;;;;5093887;28;20044;-46
2021/03/03 06:06:43;;;;;;;19.83;16.33;;;;;;;;;;5093542;28;20031;-45
2021/03/03 06:09:09;;;;;;;32.58;17.85;;;;;;;;;;5093887;28;20118;-47
2021/03/03 06:11:35;;;;;;;16.00;13.77;;;;;;;;;;5093249;28;20102;-44
2021/03/03 06:14:00;;;;;;;25.75;16.17;;;;;;;;;;5093589;28;20024;-46
2021/03/03 06:16:25;;;;;;;17.17;15.38;;;;;;;;;;5093154;28;20024;-47
2021/03/03 06:18:51;;;;;;;21.80;14.75;;;;;;;;;;5091651;28;20467;-46
2021/03/03 06:21:24;;;;;;;21.60;15.88;;;;;;;;;;5092924;28;20052;-46
2021/03/03 06:23:57;;;;;;;19.95;14.32;;;;;;;;;;5091862;28;20097;-46
2021/03/03 06:26:23;;;;;;;19.55;15.13;;;;;;;;;;5083082;28;20016;-45
2021/03/03 06:28:48;;;;;;;23.13;15.82;;;;;;;;;;5087810;28;20020;-45
2021/03/03 06:31:32;;;;;;;32.58;15.98;;;;;;;;;;5084950;28;20025;-43
2021/03/03 06:34:10;;;;;;;20.65;15.43;;;;;;;;;;5092208;28;20093;-45
2021/03/03 06:36:36;;;;;;;29.23;17.48;;;;;;;;;;5093119;28;20530;-46
2021/03/03 06:39:17;;;;;;;25.08;16.42;;;;;;;;;;5092613;28;20053;-48
2021/03/03 06:41:42;;;;;;;;;;;;;;;;;;5093088;28;20024;-49
2021/03/03 06:44:08;;;;;;;22.33;20.17;;;;;;;;;;5091475;28;19930;-43
2021/03/03 06:46:33;;;;;;;22.63;19.65;;;;;;;;;;5093413;28;20016;-44
2021/03/03 06:48:58;;;;;;;20.42;18.25;;;;;;;;;;5092251;28;20024;-42
2021/03/03 06:51:30;;;;;;;25.60;17.77;;;;;;;;;;5093105;28;20032;-46
2021/03/03 06:53:56;;;;;;;20.38;17.30;;;;;;;;;;5092444;28;20117;-47
2021/03/03 06:56:42;;;;;;;30.90;18.88;;;;;;;;;;5092624;28;20039;-43
2021/03/03 06:59:20;;;;;;;21.33;19.02;;;;;;;;;;5092339;28;20142;-44
2021/03/03 07:01:47;;;;;;;27.25;21.95;;;;;;;;;;5092763;28;20027;-48
2021/03/03 07:04:21;;;;;;;46.67;23.55;;;;;;;;;;5092217;28;20099;-43
2021/03/03 07:06:47;;;;;;;30.77;21.27;;;;;;;;;;5092760;28;20526;-44
2021/03/03 07:09:12;;;;;;;21.20;19.10;;;;;;;;;;5092139;28;20032;-49
2021/03/03 07:11:38;;;;;;;32.05;24.27;;;;;;;;;;5092176;28;20090;-50
2021/03/03 07:14:16;;;;;;;33.20;25.63;;;;;;;;;;5091728;28;20028;-55
2021/03/03 07:17:00;;;;;;;35.35;27.42;;;;;;;;;;5092176;28;20052;-44
2021/03/03 07:19:25;;;;;;;34.10;27.20;;;;;;;;;;5092357;28;20064;-45
2021/03/03 07:21:51;;;;;;;47.75;28.52;;;;;;;;;;5090930;28;20384;-49
2021/03/03 07:24:16;;;;;;;23.55;20.48;;;;;;;;;;5091331;28;20040;-47
2021/03/03 07:26:42;;;;;;;25.38;21.30;;;;;;;;;;5091215;28;20072;-44
2021/03/03 07:29:08;;;;;;;23.58;19.42;;;;;;;;;;5091445;28;20135;-47
2021/03/03 07:31:34;;;;;;;24.63;19.85;;;;;;;;;;5090560;28;20981;-45
2021/03/03 07:33:59;;;;;;;29.50;24.27;;;;;;;;;;5091774;28;20123;-48
2021/03/03 07:36:25;;;;;;;28.98;23.08;;;;;;;;;;5090432;28;20112;-53
2021/03/03 07:38:51;;;;;;;38.35;24.63;;;;;;;;;;5091200;28;20039;-47
2021/03/03 07:41:17;;;;;;;45.67;34.97;;;;;;;;;;5091313;28;20377;-58
2021/03/03 07:43:48;;;;;;;33.45;21.83;;;;;;;;;;5090094;28;20460;-45
2021/03/03 07:46:13;;;;;;;31.27;24.13;;;;;;;;;;5091809;28;20637;-48
2021/03/03 07:48:39;;;;;;;30.13;21.23;;;;;;;;;;5090404;28;20458;-46
2021/03/03 07:51:06;;;;;;;29.08;20.08;;;;;;;;;;5090927;28;20120;-45
2021/03/03 07:53:36;;;;;;;29.73;25.85;;;;;;;;;;5089145;28;20158;-47
2021/03/03 07:56:03;;;;;;;43.28;24.17;;;;;;;;;;5089059;28;20024;-48
2021/03/03 07:58:29;;;;;;;33.28;25.08;;;;;;;;;;5090183;28;20434;-43
2021/03/03 08:00:55;;;;;;;33.53;22.42;;;;;;;;;;5089958;28;20020;-45
2021/03/03 08:03:38;;;;;;;37.13;23.23;;;;;;;;;;5089672;28;20078;-47
2021/03/03 08:06:22;;;;;;;82.50;58.03;;;;;;;;;;5089320;28;20639;-46
2021/03/03 08:09:05;;;;;;;65.18;48.72;;;;;;;;;;5090466;28;20090;-49
2021/03/03 08:11:32;;;;;;;57.28;21.58;;;;;;;;;;5091256;28;20016;-48
2021/03/03 08:13:57;;;;;;;16.27;14.48;;;;;;;;;;5091070;28;20116;-52
2021/03/03 08:16:22;;;;;;;28.30;16.83;;;;;;;;;;5087690;28;20028;-47
2021/03/03 08:18:48;;;;;;;33.13;18.05;;;;;;;;;;5090936;28;20081;-47
2021/03/03 08:21:16;;;;;;;34.45;18.77;;;;;;;;;;5091093;28;20023;-47
2021/03/03 08:23:42;;;;;;;29.33;21.92;;;;;;;;;;5090705;28;20040;-48
2021/03/03 08:26:17;;;;;;;29.45;24.13;;;;;;;;;;5090903;28;20028;-48
2021/03/03 08:28:48;;;;;;;38.72;26.30;;;;;;;;;;5090936;28;20035;-45
2021/03/03 08:31:24;;;;;;;25.88;16.40;;;;;;;;;;5091117;28;20032;-45
2021/03/03 08:33:53;;;;;;;32.92;19.55;;;;;;;;;;5088569;28;20498;-46
2021/03/03 08:36:21;;;;;;;25.50;17.02;;;;;;;;;;5088709;28;20119;-49
2021/03/03 08:38:52;;;;;;;19.05;15.95;;;;;;;;;;5090990;28;20043;-45
2021/03/03 08:41:17;;;;;;;27.75;14.85;;;;;;;;;;5091071;28;20027;-46
2021/03/03 08:43:43;;;;;;;19.75;15.13;;;;;;;;;;5090551;28;20043;-44
2021/03/03 08:46:17;;;;;;;29.20;18.08;;;;;;;;;;5090791;28;20380;-46
2021/03/03 08:48:43;;;;;;;28.20;15.80;;;;;;;;;;5090368;28;20021;-48
2021/03/03 08:51:21;;;;;;;22.55;16.13;;;;;;;;;;5089745;28;20045;-47
2021/03/03 08:53:50;;;;;;;24.58;16.65;;;;;;;;;;5088445;28;20032;-51
2021/03/03 08:56:44;;;;;;;26.20;16.20;;;;;;;;;;5088305;28;20019;-49
2021/03/03 08:59:10;;;;;;;31.40;18.58;;;;;;;;;;5087346;28;20035;-48
2021/03/03 09:02:17;;;;;;;22.77;16.65;;;;;;;;;;5088786;28;20483;-48
2021/03/03 09:04:47;;;;;;;23.70;16.10;;;;;;;;;;5012809;28;20121;-51
2021/03/03 09:07:13;;;;;;;26.05;15.75;;;;;;;;;;5074061;28;20081;-51
2021/03/03 09:09:41;;;;;;;28.75;13.73;;;;;;;;;;5089322;28;20086;-50
2021/03/03 09:12:08;;;;;;;20.35;14.90;;;;;;;;;;5088897;28;20028;-49
2021/03/03 09:14:34;;;;;;;31.75;15.70;;;;;;;;;;5086123;28;20074;-54
2021/03/03 09:17:00;;;;;;;16.20;14.20;;;;;;;;;;5088637;28;20028;-46
2021/03/03 09:19:26;;;;;;;19.17;14.70;;;;;;;;;;5080992;28;20053;-52
2021/03/03 09:21:52;;;;;;;39.00;16.08;;;;;;;;;;5088732;28;20032;-48
2021/03/03 09:24:17;;;;;;;29.27;18.30;;;;;;;;;;5089979;28;20064;-67
2021/03/03 09:26:43;;;;;;;18.20;14.93;;;;;;;;;;5088173;28;20437;-65
2021/03/03 09:29:27;;;;;;;26.80;17.77;;;;;;;;;;5090519;28;20107;-67
2021/03/03 09:31:53;;;;;;;21.83;15.13;;;;;;;;;;5089971;28;20024;-65
2021/03/03 09:34:18;;;;;;;21.08;14.75;;;;;;;;;;5090058;28;20479;-66
2021/03/03 09:36:54;;;;;;;41.00;16.05;;;;;;;;;;5090492;28;20123;-66
2021/03/03 09:39:20;;;;;;;20.95;15.90;;;;;;;;;;5089158;28;20101;-66
2021/03/03 09:41:52;;;;;;;25.20;14.48;;;;;;;;;;5089893;28;20036;-66
2021/03/03 09:44:18;;;;;;;34.20;14.30;;;;;;;;;;5090836;28;20062;-67
2021/03/03 09:46:57;;;;;;;16.98;13.60;;;;;;;;;;5088129;28;20453;-66
2021/03/03 09:49:31;;;;;;;21.48;14.00;;;;;;;;;;5085412;28;20028;-65
2021/03/03 09:51:57;;;;;;;37.83;15.98;;;;;;;;;;5090237;28;20051;-66
2021/03/03 09:54:30;;;;;;;22.23;14.13;;;;;;;;;;5090329;28;20028;-65
2021/03/03 09:57:00;;;;;;;22.70;14.65;;;;;;;;;;5089950;28;20028;-64
2021/03/03 09:59:26;;;;;;;22.90;14.68;;;;;;;;;;5088781;28;20354;-65
2021/03/03 10:01:51;;;;;;;20.98;14.02;;;;;;;;;;5090391;28;20016;-65
2021/03/03 10:04:17;;;;;;;20.40;11.20;;;;;;;;;;5089514;28;20040;-66
2021/03/03 10:06:43;;;;;;;31.23;22.35;;;;;;;;;;5089676;28;20024;-65
2021/03/03 10:09:08;;;;;;;19.40;14.10;;;;;;;;;;5089129;28;20380;-64
2021/03/03 10:11:33;;;;;;;24.33;14.10;;;;;;;;;;5088603;28;20025;-66
2021/03/03 10:14:10;;;;;;;20.83;14.30;;;;;;;;;;5086044;28;20103;-64
2021/03/03 10:16:36;;;;;;;26.58;16.92;;;;;;;;;;5095626;28;20086;-64
2021/03/03 10:19:01;;;;;;;26.73;18.23;;;;;;;;;;5090889;28;20060;-66
2021/03/03 10:21:27;;;;;;;19.00;15.10;;;;;;;;;;5096538;28;20449;-63
2021/03/03 10:23:52;;;;;;;22.90;15.13;;;;;;;;;;5086410;28;20153;-64
2021/03/03 10:26:21;;;;;;;13.15;11.85;;;;;;;;;;5092938;28;20028;-64
2021/03/03 10:28:50;;;;;;;20.88;13.50;;;;;;;;;;5083320;28;20033;-64
2021/03/03 10:31:16;;;;;;;16.15;10.43;;;;;;;;;;5092348;28;20048;-64
2021/03/03 10:33:42;;;;;;;22.33;18.35;;;;;;;;;;5091920;28;20055;-64
2021/03/03 10:36:08;;;;;;;16.65;11.98;;;;;;;;;;5093061;28;20024;-63
2021/03/03 10:38:34;;;;;;;20.95;16.25;;;;;;;;;;5089912;28;20481;-63
2021/03/03 10:41:00;;;;;;;17.52;14.65;;;;;;;;;;5091847;28;20087;-63
2021/03/03 10:43:26;;;;;;;30.55;15.20;;;;;;;;;;5090065;28;20197;-64
2021/03/03 10:46:11;;;;;;;25.75;16.80;;;;;;;;;;5091222;28;20024;-62
2021/03/03 10:48:37;;;;;;;22.38;16.13;;;;;;;;;;5090090;28;20032;-64
2021/03/03 10:51:02;;;;;;;11.77;10.18;;;;;;;;;;5090432;28;20510;-58
2021/03/03 10:53:43;;;;;;;26.63;19.55;;;;;;;;;;5089902;28;20527;-63
2021/03/03 10:56:27;;;;;;;18.40;11.18;;;;;;;;;;5092025;28;20023;-63
2021/03/03 10:58:57;;;;;;;8.55;6.75;;;;;;;;;;5092316;28;20040;-61
2021/03/03 11:01:23;;;;;;;25.58;16.42;;;;;;;;;;5090769;28;20020;-61
2021/03/03 11:03:49;;;;;;;14.70;10.23;;;;;;;;;;5090780;28;20039;-62
2021/03/03 11:06:15;;;;;;;32.35;12.48;;;;;;;;;;5092006;28;20016;-62
2021/03/03 11:08:40;;;;;;;24.65;13.60;;;;;;;;;;5092754;28;20108;-61
2021/03/03 11:11:06;;;;;;;15.13;9.73;;;;;;;;;;5092926;28;20015;-61
2021/03/03 11:13:32;;;;;;;13.00;10.32;;;;;;;;;;5091885;28;20050;-61
2021/03/03 11:15:57;;;;;;;31.55;18.80;;;;;;;;;;5090150;28;20019;-60
2021/03/03 11:18:22;;;;;;;23.48;9.93;;;;;;;;;;5091552;28;20481;-62
2021/03/03 11:20:47;;;;;;;27.52;12.50;;;;;;;;;;5091959;28;20020;-60
2021/03/03 11:23:13;;;;;;;26.02;11.40;;;;;;;;;;5090676;28;20024;-60
2021/03/03 11:25:38;;;;;;;24.00;15.30;;;;;;;;;;5091369;28;20081;-61
2021/03/03 11:28:04;;;;;;;25.27;14.15;;;;;;;;;;5091794;28;20091;-60
2021/03/03 11:30:29;;;;;;;41.58;17.27;;;;;;;;;;5091261;28;20479;-60
2021/03/03 11:32:54;;;;;;;13.45;12.05;;;;;;;;;;5091125;28;20028;-63
2021/03/03 11:35:20;;;;;;;20.50;12.65;;;;;;;;;;5090744;28;20024;-63
2021/03/03 11:37:46;;;;;;;14.90;9.68;;;;;;;;;;5091414;28;20471;-63
2021/03/03 11:40:11;;;;;;;19.45;12.07;;;;;;;;;;5091764;28;20024;-60
2021/03/03 11:42:36;;;;;;;23.55;13.80;;;;;;;;;;5091714;28;20028;-61
2021/03/03 11:45:02;;;;;;;19.38;16.17;;;;;;;;;;5092112;28;20051;-63
2021/03/03 11:47:27;;;;;;;19.35;12.98;;;;;;;;;;5091698;28;20415;-63
2021/03/03 11:49:53;;;;;;;21.42;16.92;;;;;;;;;;5091547;28;20081;-61
2021/03/03 11:52:18;;;;;;;17.65;13.68;;;;;;;;;;5088205;28;20020;-63
2021/03/03 11:54:43;;;;;;;16.95;11.35;;;;;;;;;;5090764;28;20066;-59
2021/03/03 11:57:09;;;;;;;13.15;10.38;;;;;;;;;;5090305;28;20453;-58
2021/03/03 11:59:34;;;;;;;13.65;11.23;;;;;;;;;;5093393;28;20032;-60
2021/03/03 12:02:00;;;;;;;19.63;12.38;;;;;;;;;;5090028;28;20024;-58
2021/03/03 12:04:25;;;;;;;18.70;10.93;;;;;;;;;;5087973;28;20077;-60
2021/03/03 12:06:50;;;;;;;22.98;12.60;;;;;;;;;;5091012;28;20012;-62
2021/03/03 12:09:16;;;;;;;16.38;11.77;;;;;;;;;;5090336;28;20064;-62
2021/03/03 12:11:41;;;;;;;26.05;13.82;;;;;;;;;;5091192;28;20024;-61
2021/03/03 12:14:07;;;;;;;17.35;10.05;;;;;;;;;;5091298;28;20115;-59
2021/03/03 12:16:32;;;;;;;20.52;11.77;;;;;;;;;;5090505;28;20529;-61
2021/03/03 12:18:57;;;;;;;21.70;10.63;;;;;;;;;;5092760;28;20048;-62
2021/03/03 12:21:23;;;;;;;24.98;13.50;;;;;;;;;;5091345;28;20016;-60
2021/03/03 12:23:48;;;;;;;23.25;10.52;;;;;;;;;;5091078;28;20083;-60
2021/03/03 12:26:13;;;;;;;24.45;10.80;;;;;;;;;;5092056;28;20128;-59
2021/03/03 12:28:39;;;;;;;26.08;13.60;;;;;;;;;;5091050;28;20036;-59
2021/03/03 12:31:04;;;;;;;18.38;11.15;;;;;;;;;;5091230;28;20183;-61
2021/03/03 12:33:29;;;;;;;21.85;11.45;;;;;;;;;;5090697;28;20047;-60
2021/03/03 12:35:55;;;;;;;18.25;11.55;;;;;;;;;;5089615;28;20061;-59
2021/03/03 12:38:20;;;;;;;19.85;10.93;;;;;;;;;;5091281;28;20058;-60
2021/03/03 12:40:45;;;;;;;23.63;12.70;;;;;;;;;;5088993;28;20480;-62
2021/03/03 12:43:11;;;;;;;15.10;9.73;;;;;;;;;;5090289;28;20057;-58
2021/03/03 12:45:36;;;;;;;21.75;14.13;;;;;;;;;;5090085;28;20036;-63
2021/03/03 12:48:02;;;;;;;18.70;10.45;;;;;;;;;;5090084;28;20070;-63
2021/03/03 12:50:27;;;;;;;31.70;14.38;;;;;;;;;;5090814;28;20034;-60
2021/03/03 12:52:53;;;;;;;28.45;12.45;;;;;;;;;;5089072;28;20099;-61
2021/03/03 12:55:18;;;;;;;24.48;13.60;;;;;;;;;;5090739;28;20047;-59
2021/03/03 12:57:43;;;;;;;18.92;10.85;;;;;;;;;;5090664;28;20448;-58
2021/03/03 13:00:09;;;;;;;18.40;11.90;;;;;;;;;;5090434;28;20519;-60
2021/03/03 13:02:34;;;;;;;16.50;12.52;;;;;;;;;;5090474;28;20028;-61
2021/03/03 13:05:00;;;;;;;23.08;12.48;;;;;;;;;;5090025;28;20056;-63
2021/03/03 13:07:25;;;;;;;23.48;11.85;;;;;;;;;;5089640;28;20035;-62
2021/03/03 13:09:50;;;;;;;17.77;11.13;;;;;;;;;;5089235;28;20024;-62
2021/03/03 13:12:16;;;;;;;25.13;10.85;;;;;;;;;;5089960;28;20069;-59
2021/03/03 13:14:41;;;;;;;17.92;11.65;;;;;;;;;;5090548;28;20035;-60
2021/03/03 13:17:07;;;;;;;22.63;13.18;;;;;;;;;;5090145;28;20020;-59
2021/03/03 13:19:32;;;;;;;27.80;12.93;;;;;;;;;;5089891;28;20150;-61
2021/03/03 13:21:58;;;;;;;28.92;10.43;;;;;;;;;;5089112;28;20024;-61
2021/03/03 13:24:23;;;;;;;27.75;13.20;;;;;;;;;;5086418;28;20460;-60
2021/03/03 13:26:49;;;;;;;16.67;11.38;;;;;;;;;;5089398;28;20028;-60
2021/03/03 13:29:14;;;;;;;21.88;10.23;;;;;;;;;;5088930;28;20040;-61
2021/03/03 13:31:40;;;;;;;22.98;10.68;;;;;;;;;;5089777;28;20047;-59
2021/03/03 13:34:05;;;;;;;16.48;9.25;;;;;;;;;;5089825;28;20032;-59
2021/03/03 13:36:30;;;;;;;22.08;12.32;;;;;;;;;;5089845;28;20423;-61
2021/03/03 13:38:55;;;;;;;20.83;10.65;;;;;;;;;;5089503;28;20093;-61
2021/03/03 13:41:21;;;;;;;14.35;10.52;;;;;;;;;;5089793;28;20124;-59
2021/03/03 13:43:46;;;;;;;12.07;10.88;;;;;;;;;;5086637;28;20044;-60
2021/03/03 13:46:11;;;;;;;37.22;10.55;;;;;;;;;;5087533;28;20122;-58
2021/03/03 13:48:37;;;;;;;18.33;10.00;;;;;;;;;;5088714;28;20028;-58
2021/03/03 13:51:02;;;;;;;14.95;10.43;;;;;;;;;;5088752;28;20065;-61
2021/03/03 13:53:27;;;;;;;16.92;11.93;;;;;;;;;;5089387;28;20057;-60
2021/03/03 13:55:53;;;;;;;16.10;9.88;;;;;;;;;;5093761;28;20376;-60
2021/03/03 13:58:18;;;;;;;11.20;8.52;;;;;;;;;;5093567;28;20038;-60
2021/03/03 14:00:44;;;;;;;25.13;11.05;;;;;;;;;;5093428;28;20055;-59
2021/03/03 14:03:09;;;;;;;26.27;10.98;;;;;;;;;;5092809;28;20112;-59
2021/03/03 14:05:34;;;;;;;17.55;10.38;;;;;;;;;;5092277;28;20020;-61
2021/03/03 14:08:00;;;;;;;22.35;10.25;;;;;;;;;;5090920;28;20027;-62
2021/03/03 14:10:26;;;;;;;30.30;12.57;;;;;;;;;;5092381;28;20035;-61
2021/03/03 14:12:51;;;;;;;12.63;10.48;;;;;;;;;;5091647;28;20051;-60
2021/03/03 14:15:16;;;;;;;18.85;10.70;;;;;;;;;;5091665;28;20133;-62
2021/03/03 14:17:42;;;;;;;28.67;10.45;;;;;;;;;;5091771;28;20445;-60